sensor_id;sensor_type;location;lat;lon;timestamp;pressure;altitude;pressure_sealevel;temperature;humidity
3142;BME280;1581;51.568;6.998;2022-10-16T00:00:57;100418.75;;;15.64;100.00
3142;BME280;1581;51.568;6.998;2022-10-16T00:03:25;100420.25;;;15.60;100.00
3142;BME280;1581;51.568;6.998;2022-10-16T00:05:54;100416.59;;;15.54;100.00
3142;BME280;1581;51.568;6.998;2022-10-16T00:08:25;100405.38;;;15.46;100.00
3142;BME280;1581;51.568;6.998;2022-10-16T00:10:59;100417.09;;;15.52;100.00
3142;BME280;1581;51.568;6.998;2022-10-16T00:13:26;100422.31;;;15.47;100.00
3142;BME280;1581;51.568;6.998;2022-10-16T00:15:55;100423.59;;;15.44;100.00
3142;BME280;1581;51.568;6.998;2022-10-16T00:18:23;100422.31;;;15.47;100.00
3142;BME280;1581;51.568;6.998;2022-10-16T00:20:52;100413.06;;;15.43;100.00
3142;BME280;1581;51.568;6.998;2022-10-16T00:23:20;100419.34;;;15.37;100.00
3142;BME280;1581;51.568;6.998;2022-10-16T00:25:55;100416.16;;;15.28;100.00
3142;BME280;1581;51.568;6.998;2022-10-16T00:28:23;100406.47;;;15.27;100.00
3142;BME280;1581;51.568;6.998;2022-10-16T00:30:51;100410.94;;;15.15;100.00
3142;BME280;1581;51.568;6.998;2022-10-16T00:33:19;100416.75;;;15.12;100.00
3142;BME280;1581;51.568;6.998;2022-10-16T00:35:47;100416.38;;;15.09;100.00
3142;BME280;1581;51.568;6.998;2022-10-16T00:38:16;100416.59;;;15.07;100.00
3142;BME280;1581;51.568;6.998;2022-10-16T00:40:44;100424.13;;;15.17;100.00
3142;BME280;1581;51.568;6.998;2022-10-16T00:43:34;100424.00;;;15.12;100.00
3142;BME280;1581;51.568;6.998;2022-10-16T00:46:05;100427.41;;;15.19;100.00
3142;BME280;1581;51.568;6.998;2022-10-16T00:48:33;100420.09;;;15.26;100.00
3142;BME280;1581;51.568;6.998;2022-10-16T00:51:00;100427.28;;;15.32;100.00
3142;BME280;1581;51.568;6.998;2022-10-16T00:53:30;100426.22;;;15.33;100.00
3142;BME280;1581;51.568;6.998;2022-10-16T00:55:57;100431.56;;;15.33;100.00
3142;BME280;1581;51.568;6.998;2022-10-16T00:58:25;100432.16;;;15.35;100.00
3142;BME280;1581;51.568;6.998;2022-10-16T01:00:52;100428.56;;;15.23;100.00
3142;BME280;1581;51.568;6.998;2022-10-16T01:03:27;100419.44;;;15.30;100.00
3142;BME280;1581;51.568;6.998;2022-10-16T01:06:06;100425.63;;;15.31;100.00
3142;BME280;1581;51.568;6.998;2022-10-16T01:08:50;100426.53;;;15.25;100.00
3142;BME280;1581;51.568;6.998;2022-10-16T01:11:27;100430.69;;;15.21;100.00
3142;BME280;1581;51.568;6.998;2022-10-16T01:14:08;100428.81;;;15.21;100.00
3142;BME280;1581;51.568;6.998;2022-10-16T01:16:44;100420.16;;;15.19;100.00
3142;BME280;1581;51.568;6.998;2022-10-16T01:19:19;100420.63;;;15.16;100.00
3142;BME280;1581;51.568;6.998;2022-10-16T01:21:51;100419.78;;;15.16;100.00
3142;BME280;1581;51.568;6.998;2022-10-16T01:24:32;100420.03;;;15.14;100.00
3142;BME280;1581;51.568;6.998;2022-10-16T01:27:12;100419.81;;;14.98;100.00
3142;BME280;1581;51.568;6.998;2022-10-16T01:29:51;100426.22;;;14.97;100.00
3142;BME280;1581;51.568;6.998;2022-10-16T01:32:27;100428.84;;;15.03;100.00
3142;BME280;1581;51.568;6.998;2022-10-16T01:35:02;100421.94;;;15.07;100.00
3142;BME280;1581;51.568;6.998;2022-10-16T01:37:36;100419.19;;;15.14;100.00
3142;BME280;1581;51.568;6.998;2022-10-16T01:40:11;100408.94;;;15.11;100.00
3142;BME280;1581;51.568;6.998;2022-10-16T01:42:44;100415.47;;;15.15;100.00
3142;BME280;1581;51.568;6.998;2022-10-16T01:45:15;100418.47;;;15.07;100.00
3142;BME280;1581;51.568;6.998;2022-10-16T01:47:46;100424.06;;;15.05;100.00
3142;BME280;1581;51.568;6.998;2022-10-16T01:50:16;100409.44;;;15.01;100.00
3142;BME280;1581;51.568;6.998;2022-10-16T01:52:49;100407.13;;;15.05;100.00
3142;BME280;1581;51.568;6.998;2022-10-16T01:55:23;100412.38;;;15.00;100.00
3142;BME280;1581;51.568;6.998;2022-10-16T01:57:54;100405.00;;;14.95;100.00
3142;BME280;1581;51.568;6.998;2022-10-16T02:00:23;100407.59;;;15.02;100.00
3142;BME280;1581;51.568;6.998;2022-10-16T02:02:53;100413.91;;;15.07;100.00
3142;BME280;1581;51.568;6.998;2022-10-16T02:05:28;100416.81;;;15.06;100.00
3142;BME280;1581;51.568;6.998;2022-10-16T02:07:57;100411.44;;;15.06;100.00
3142;BME280;1581;51.568;6.998;2022-10-16T02:10:25;100420.22;;;15.13;100.00
3142;BME280;1581;51.568;6.998;2022-10-16T02:13:02;100423.59;;;15.08;100.00
3142;BME280;1581;51.568;6.998;2022-10-16T02:15:30;100426.69;;;15.12;100.00
3142;BME280;1581;51.568;6.998;2022-10-16T02:17:58;100429.38;;;15.12;100.00
3142;BME280;1581;51.568;6.998;2022-10-16T02:20:28;100434.25;;;15.15;100.00
3142;BME280;1581;51.568;6.998;2022-10-16T02:22:58;100433.94;;;15.23;100.00
3142;BME280;1581;51.568;6.998;2022-10-16T02:25:32;100439.56;;;15.21;100.00
3142;BME280;1581;51.568;6.998;2022-10-16T02:28:07;100435.03;;;15.22;100.00
3142;BME280;1581;51.568;6.998;2022-10-16T02:30:42;100433.31;;;15.27;100.00
3142;BME280;1581;51.568;6.998;2022-10-16T02:33:14;100439.88;;;15.31;100.00
3142;BME280;1581;51.568;6.998;2022-10-16T02:35:43;100441.81;;;15.24;100.00
3142;BME280;1581;51.568;6.998;2022-10-16T02:38:13;100441.44;;;15.21;100.00
3142;BME280;1581;51.568;6.998;2022-10-16T02:40:42;100442.44;;;15.26;100.00
3142;BME280;1581;51.568;6.998;2022-10-16T02:43:11;100441.44;;;15.21;100.00
3142;BME280;1581;51.568;6.998;2022-10-16T02:45:39;100442.22;;;15.21;100.00
3142;BME280;1581;51.568;6.998;2022-10-16T02:48:07;100431.69;;;15.26;100.00
3142;BME280;1581;51.568;6.998;2022-10-16T02:50:34;100429.22;;;15.25;100.00
3142;BME280;1581;51.568;6.998;2022-10-16T02:53:02;100438.91;;;15.26;100.00
3142;BME280;1581;51.568;6.998;2022-10-16T02:55:29;100434.13;;;15.28;100.00
3142;BME280;1581;51.568;6.998;2022-10-16T02:57:57;100432.50;;;15.27;100.00
3142;BME280;1581;51.568;6.998;2022-10-16T03:00:26;100432.25;;;15.28;100.00
3142;BME280;1581;51.568;6.998;2022-10-16T03:02:54;100435.19;;;15.27;100.00
3142;BME280;1581;51.568;6.998;2022-10-16T03:05:22;100436.00;;;15.27;100.00
3142;BME280;1581;51.568;6.998;2022-10-16T03:07:49;100442.91;;;15.17;100.00
3142;BME280;1581;51.568;6.998;2022-10-16T03:10:18;100435.03;;;15.22;100.00
3142;BME280;1581;51.568;6.998;2022-10-16T03:12:46;100444.50;;;15.24;100.00
3142;BME280;1581;51.568;6.998;2022-10-16T03:15:14;100451.28;;;15.27;100.00
3142;BME280;1581;51.568;6.998;2022-10-16T03:17:42;100446.75;;;15.27;100.00
3142;BME280;1581;51.568;6.998;2022-10-16T03:20:10;100443.59;;;15.30;100.00
3142;BME280;1581;51.568;6.998;2022-10-16T03:22:38;100449.25;;;15.40;100.00
3142;BME280;1581;51.568;6.998;2022-10-16T03:25:07;100445.00;;;15.33;100.00
3142;BME280;1581;51.568;6.998;2022-10-16T03:27:34;100440.47;;;15.33;100.00
3142;BME280;1581;51.568;6.998;2022-10-16T03:30:03;100443.28;;;15.38;100.00
3142;BME280;1581;51.568;6.998;2022-10-16T03:32:30;100437.34;;;15.36;100.00
3142;BME280;1581;51.568;6.998;2022-10-16T03:34:59;100439.78;;;15.38;100.00
3142;BME280;1581;51.568;6.998;2022-10-16T03:37:27;100442.22;;;15.39;100.00
3142;BME280;1581;51.568;6.998;2022-10-16T03:39:54;100441.56;;;15.44;100.00
3142;BME280;1581;51.568;6.998;2022-10-16T03:42:22;100441.19;;;15.40;100.00
3142;BME280;1581;51.568;6.998;2022-10-16T03:44:50;100443.19;;;15.45;100.00
3142;BME280;1581;51.568;6.998;2022-10-16T03:47:17;100437.47;;;15.41;100.00
3142;BME280;1581;51.568;6.998;2022-10-16T03:49:47;100436.66;;;15.41;100.00
3142;BME280;1581;51.568;6.998;2022-10-16T03:52:16;100436.66;;;15.41;100.00
3142;BME280;1581;51.568;6.998;2022-10-16T03:54:44;100442.03;;;15.41;100.00
3142;BME280;1581;51.568;6.998;2022-10-16T03:57:11;100452.00;;;15.34;100.00
3142;BME280;1581;51.568;6.998;2022-10-16T03:59:39;100461.84;;;15.22;100.00
3142;BME280;1581;51.568;6.998;2022-10-16T04:02:07;100466.13;;;15.29;100.00
3142;BME280;1581;51.568;6.998;2022-10-16T04:04:34;100462.38;;;15.30;100.00
3142;BME280;1581;51.568;6.998;2022-10-16T04:07:02;100472.31;;;15.30;100.00
3142;BME280;1581;51.568;6.998;2022-10-16T04:09:31;100458.28;;;15.28;100.00
3142;BME280;1581;51.568;6.998;2022-10-16T04:11:59;100453.97;;;15.27;100.00
3142;BME280;1581;51.568;6.998;2022-10-16T04:14:26;100456.56;;;15.33;100.00
3142;BME280;1581;51.568;6.998;2022-10-16T04:16:54;100464.31;;;15.23;100.00
3142;BME280;1581;51.568;6.998;2022-10-16T04:19:21;100472.09;;;15.31;100.00
3142;BME280;1581;51.568;6.998;2022-10-16T04:21:49;100470.22;;;15.32;100.00
3142;BME280;1581;51.568;6.998;2022-10-16T04:24:16;100472.09;;;15.31;100.00
3142;BME280;1581;51.568;6.998;2022-10-16T04:26:45;100480.56;;;15.28;100.00
3142;BME280;1581;51.568;6.998;2022-10-16T04:29:12;100479.16;;;15.26;100.00
3142;BME280;1581;51.568;6.998;2022-10-16T04:31:40;100484.34;;;15.27;100.00
3142;BME280;1581;51.568;6.998;2022-10-16T04:34:07;100487.59;;;15.29;100.00
3142;BME280;1581;51.568;6.998;2022-10-16T04:36:35;100497.53;;;15.29;100.00
3142;BME280;1581;51.568;6.998;2022-10-16T04:39:03;100491.78;;;15.25;100.00
3142;BME280;1581;51.568;6.998;2022-10-16T04:41:30;100492.63;;;15.19;100.00
3142;BME280;1581;51.568;6.998;2022-10-16T04:44:08;100492.63;;;15.19;100.00
3142;BME280;1581;51.568;6.998;2022-10-16T04:46:36;100503.97;;;15.21;100.00
3142;BME280;1581;51.568;6.998;2022-10-16T04:49:03;100501.28;;;15.21;100.00
3142;BME280;1581;51.568;6.998;2022-10-16T04:51:31;100497.41;;;15.17;100.00
3142;BME280;1581;51.568;6.998;2022-10-16T04:53:59;100505.84;;;15.21;100.00
3142;BME280;1581;51.568;6.998;2022-10-16T04:56:26;100508.25;;;15.29;100.00
3142;BME280;1581;51.568;6.998;2022-10-16T04:58:54;100510.94;;;15.29;100.00
3142;BME280;1581;51.568;6.998;2022-10-16T05:01:23;100509.78;;;15.18;100.00
3142;BME280;1581;51.568;6.998;2022-10-16T05:03:50;100510.69;;;15.12;100.00
3142;BME280;1581;51.568;6.998;2022-10-16T05:06:18;100509.56;;;15.20;100.00
3142;BME280;1581;51.568;6.998;2022-10-16T05:08:46;100520.69;;;15.23;100.00
3142;BME280;1581;51.568;6.998;2022-10-16T05:11:13;100520.91;;;15.22;100.00
3142;BME280;1581;51.568;6.998;2022-10-16T05:13:41;100523.16;;;15.25;100.00
3142;BME280;1581;51.568;6.998;2022-10-16T05:16:08;100524.38;;;15.29;100.00
3142;BME280;1581;51.568;6.998;2022-10-16T05:18:37;100526.63;;;15.32;100.00
3142;BME280;1581;51.568;6.998;2022-10-16T05:21:05;100538.47;;;15.24;100.00
3142;BME280;1581;51.568;6.998;2022-10-16T05:23:33;100530.00;;;15.21;100.00
3142;BME280;1581;51.568;6.998;2022-10-16T05:26:00;100526.84;;;15.24;100.00
3142;BME280;1581;51.568;6.998;2022-10-16T05:28:29;100540.09;;;15.25;100.00
3142;BME280;1581;51.568;6.998;2022-10-16T05:30:57;100549.13;;;15.31;100.00
3142;BME280;1581;51.568;6.998;2022-10-16T05:33:25;100549.56;;;15.28;100.00
3142;BME280;1581;51.568;6.998;2022-10-16T05:35:54;100547.94;;;15.27;100.00
3142;BME280;1581;51.568;6.998;2022-10-16T05:38:22;100541.16;;;15.24;100.00
3142;BME280;1581;51.568;6.998;2022-10-16T05:40:53;100552.69;;;15.25;100.00
3142;BME280;1581;51.568;6.998;2022-10-16T05:43:20;100546.78;;;15.16;100.00
3142;BME280;1581;51.568;6.998;2022-10-16T05:45:55;100547.53;;;15.23;100.00
3142;BME280;1581;51.568;6.998;2022-10-16T05:48:23;100558.91;;;15.25;100.00
3142;BME280;1581;51.568;6.998;2022-10-16T05:50:58;100549.66;;;15.15;100.00
3142;BME280;1581;51.568;6.998;2022-10-16T05:53:27;100555.38;;;15.25;100.00
3142;BME280;1581;51.568;6.998;2022-10-16T05:55:55;100554.97;;;15.21;100.00
3142;BME280;1581;51.568;6.998;2022-10-16T05:58:24;100563.22;;;15.26;100.00
3142;BME280;1581;51.568;6.998;2022-10-16T06:00:55;100567.59;;;15.21;100.00
3142;BME280;1581;51.568;6.998;2022-10-16T06:03:23;100581.88;;;15.15;100.00
3142;BME280;1581;51.568;6.998;2022-10-16T06:05:51;100579.81;;;15.17;100.00
3142;BME280;1581;51.568;6.998;2022-10-16T06:08:22;100582.84;;;15.20;100.00
3142;BME280;1581;51.568;6.998;2022-10-16T06:11:00;100594.19;;;15.22;100.00
3142;BME280;1581;51.568;6.998;2022-10-16T06:13:28;100599.81;;;15.21;100.00
3142;BME280;1581;51.568;6.998;2022-10-16T06:15:58;100608.34;;;15.11;100.00
3142;BME280;1581;51.568;6.998;2022-10-16T06:18:26;100600.47;;;15.16;100.00
3142;BME280;1581;51.568;6.998;2022-10-16T06:20:55;100602.91;;;15.18;100.00
3142;BME280;1581;51.568;6.998;2022-10-16T06:23:24;100598.34;;;15.18;100.00
3142;BME280;1581;51.568;6.998;2022-10-16T06:25:52;100599.56;;;15.22;100.00
3142;BME280;1581;51.568;6.998;2022-10-16T06:28:20;100604.13;;;15.22;100.00
3142;BME280;1581;51.568;6.998;2022-10-16T06:30:47;100613.22;;;15.21;100.00
3142;BME280;1581;51.568;6.998;2022-10-16T06:33:15;100608.88;;;15.26;100.00
3142;BME280;1581;51.568;6.998;2022-10-16T06:35:42;100615.59;;;15.35;100.00
3142;BME280;1581;51.568;6.998;2022-10-16T06:38:10;100624.03;;;15.14;100.00
3142;BME280;1581;51.568;6.998;2022-10-16T06:40:40;100626.81;;;15.26;100.00
3142;BME280;1581;51.568;6.998;2022-10-16T06:43:08;100633.06;;;15.20;100.00
3142;BME280;1581;51.568;6.998;2022-10-16T06:45:35;100646.84;;;15.23;100.00
3142;BME280;1581;51.568;6.998;2022-10-16T06:48:03;100640.50;;;15.18;100.00
3142;BME280;1581;51.568;6.998;2022-10-16T06:50:31;100642.50;;;15.29;100.00
3142;BME280;1581;51.568;6.998;2022-10-16T06:52:58;100652.63;;;15.27;100.00
3142;BME280;1581;51.568;6.998;2022-10-16T06:55:26;100652.66;;;15.20;100.00
3142;BME280;1581;51.568;6.998;2022-10-16T06:57:54;100660.25;;;15.30;100.00
3142;BME280;1581;51.568;6.998;2022-10-16T07:00:22;100660.25;;;15.30;100.00
3142;BME280;1581;51.568;6.998;2022-10-16T07:02:50;100665.00;;;15.28;100.00
3142;BME280;1581;51.568;6.998;2022-10-16T07:05:17;100676.78;;;15.27;100.00
3142;BME280;1581;51.568;6.998;2022-10-16T07:07:45;100679.31;;;15.22;100.00
3142;BME280;1581;51.568;6.998;2022-10-16T07:10:13;100689.84;;;15.17;100.00
3142;BME280;1581;51.568;6.998;2022-10-16T07:12:40;100695.00;;;15.18;100.00
3142;BME280;1581;51.568;6.998;2022-10-16T07:15:10;100702.38;;;15.23;100.00
3142;BME280;1581;51.568;6.998;2022-10-16T07:17:38;100709.06;;;15.14;100.00
3142;BME280;1581;51.568;6.998;2022-10-16T07:20:07;100714.16;;;15.28;100.00
3142;BME280;1581;51.568;6.998;2022-10-16T07:22:35;100706.19;;;15.15;100.00
3142;BME280;1581;51.568;6.998;2022-10-16T07:25:03;100717.06;;;15.20;100.00
3142;BME280;1581;51.568;6.998;2022-10-16T07:27:31;100719.06;;;15.07;100.00
3142;BME280;1581;51.568;6.998;2022-10-16T07:29:58;100725.94;;;15.27;100.00
3142;BME280;1581;51.568;6.998;2022-10-16T07:32:27;100724.69;;;15.30;100.00
3142;BME280;1581;51.568;6.998;2022-10-16T07:34:55;100726.91;;;15.33;100.00
3142;BME280;1581;51.568;6.998;2022-10-16T07:37:22;100726.09;;;15.32;100.00
3142;BME280;1581;51.568;6.998;2022-10-16T07:39:50;100723.84;;;15.29;100.00
3142;BME280;1581;51.568;6.998;2022-10-16T07:42:17;100727.19;;;15.49;100.00
3142;BME280;1581;51.568;6.998;2022-10-16T07:44:46;100728.13;;;15.61;100.00
3142;BME280;1581;51.568;6.998;2022-10-16T07:47:13;100745.66;;;15.63;100.00
3142;BME280;1581;51.568;6.998;2022-10-16T07:49:42;100742.16;;;15.63;100.00
3142;BME280;1581;51.568;6.998;2022-10-16T07:52:10;100752.97;;;15.74;100.00
3142;BME280;1581;51.568;6.998;2022-10-16T07:54:37;100758.22;;;15.69;100.00
3142;BME280;1581;51.568;6.998;2022-10-16T07:57:05;100764.63;;;15.68;100.00
3142;BME280;1581;51.568;6.998;2022-10-16T07:59:36;100766.97;;;15.83;100.00
3142;BME280;1581;51.568;6.998;2022-10-16T08:02:05;100767.19;;;15.81;100.00
3142;BME280;1581;51.568;6.998;2022-10-16T08:04:32;100777.78;;;15.76;100.00
3142;BME280;1581;51.568;6.998;2022-10-16T08:07:02;100777.47;;;15.84;100.00
3142;BME280;1581;51.568;6.998;2022-10-16T08:09:29;100778.84;;;15.93;100.00
3142;BME280;1581;51.568;6.998;2022-10-16T08:11:57;100784.00;;;15.95;100.00
3142;BME280;1581;51.568;6.998;2022-10-16T08:14:25;100787.78;;;15.87;100.00
3142;BME280;1581;51.568;6.998;2022-10-16T08:16:52;100782.56;;;15.92;100.00
3142;BME280;1581;51.568;6.998;2022-10-16T08:19:20;100790.88;;;16.09;100.00
3142;BME280;1581;51.568;6.998;2022-10-16T08:21:48;100794.84;;;16.06;100.00
3142;BME280;1581;51.568;6.998;2022-10-16T08:24:17;100791.91;;;16.08;100.00
3142;BME280;1581;51.568;6.998;2022-10-16T08:26:44;100809.44;;;16.17;100.00
3142;BME280;1581;51.568;6.998;2022-10-16T08:29:14;100808.16;;;16.19;100.00
3142;BME280;1581;51.568;6.998;2022-10-16T08:31:49;100816.88;;;16.15;100.00
3142;BME280;1581;51.568;6.998;2022-10-16T08:34:17;100815.91;;;16.09;100.00
3142;BME280;1581;51.568;6.998;2022-10-16T08:36:45;100825.22;;;16.31;100.00
3142;BME280;1581;51.568;6.998;2022-10-16T08:39:13;100831.59;;;16.37;100.00
3142;BME280;1581;51.568;6.998;2022-10-16T08:42:15;100831.94;;;16.58;100.00
3142;BME280;1581;51.568;6.998;2022-10-16T08:45:26;100837.56;;;16.56;100.00
3142;BME280;1581;51.568;6.998;2022-10-16T08:48:09;100845.22;;;16.53;100.00
3142;BME280;1581;51.568;6.998;2022-10-16T08:50:42;100848.31;;;16.56;100.00
3142;BME280;1581;51.568;6.998;2022-10-16T08:53:17;100856.00;;;16.71;100.00
3142;BME280;1581;51.568;6.998;2022-10-16T08:55:52;100852.84;;;16.74;100.00
3142;BME280;1581;51.568;6.998;2022-10-16T08:58:22;100856.59;;;16.91;100.00
3142;BME280;1581;51.568;6.998;2022-10-16T09:00:53;100862.47;;;16.99;100.00
3142;BME280;1581;51.568;6.998;2022-10-16T09:03:38;100856.72;;;16.96;100.00
3142;BME280;1581;51.568;6.998;2022-10-16T09:06:26;100863.63;;;16.92;100.00
3142;BME280;1581;51.568;6.998;2022-10-16T09:09:18;100863.75;;;16.97;100.00
3142;BME280;1581;51.568;6.998;2022-10-16T09:11:57;100867.81;;;16.88;100.00
3142;BME280;1581;51.568;6.998;2022-10-16T09:14:50;100872.19;;;17.00;100.00
3142;BME280;1581;51.568;6.998;2022-10-16T09:17:37;100870.81;;;17.09;100.00
3142;BME280;1581;51.568;6.998;2022-10-16T09:20:22;100879.59;;;17.05;100.00
3142;BME280;1581;51.568;6.998;2022-10-16T09:23:08;100885.50;;;17.13;100.00
3142;BME280;1581;51.568;6.998;2022-10-16T09:25:39;100890.16;;;17.06;100.00
3142;BME280;1581;51.568;6.998;2022-10-16T09:28:08;100886.00;;;17.22;100.00
3142;BME280;1581;51.568;6.998;2022-10-16T09:30:38;100879.53;;;17.23;100.00
3142;BME280;1581;51.568;6.998;2022-10-16T09:33:07;100885.41;;;17.20;100.00
3142;BME280;1581;51.568;6.998;2022-10-16T09:35:39;100881.75;;;17.32;100.00
3142;BME280;1581;51.568;6.998;2022-10-16T09:38:07;100888.31;;;17.36;100.00
3142;BME280;1581;51.568;6.998;2022-10-16T09:40:37;100878.97;;;17.38;100.00
3142;BME280;1581;51.568;6.998;2022-10-16T09:43:23;100884.44;;;17.61;100.00
3142;BME280;1581;51.568;6.998;2022-10-16T09:46:00;100887.50;;;17.76;100.00
3142;BME280;1581;51.568;6.998;2022-10-16T09:48:33;100898.50;;;17.75;100.00
3142;BME280;1581;51.568;6.998;2022-10-16T09:51:05;100885.78;;;17.52;100.00
3142;BME280;1581;51.568;6.998;2022-10-16T09:53:42;100890.28;;;17.70;100.00
3142;BME280;1581;51.568;6.998;2022-10-16T09:56:11;100895.22;;;17.73;100.00
3142;BME280;1581;51.568;6.998;2022-10-16T09:58:49;100897.84;;;17.91;100.00
3142;BME280;1581;51.568;6.998;2022-10-16T10:01:20;100900.53;;;17.91;100.00
3142;BME280;1581;51.568;6.998;2022-10-16T10:03:48;100892.19;;;17.92;100.00
3142;BME280;1581;51.568;6.998;2022-10-16T10:06:23;100890.44;;;17.86;100.00
3142;BME280;1581;51.568;6.998;2022-10-16T10:09:00;100894.78;;;17.87;100.00
3142;BME280;1581;51.568;6.998;2022-10-16T10:11:54;100903.31;;;17.84;100.00
3142;BME280;1581;51.568;6.998;2022-10-16T10:14:27;100901.03;;;17.99;100.00
3142;BME280;1581;51.568;6.998;2022-10-16T10:17:14;100901.78;;;18.29;100.00
3142;BME280;1581;51.568;6.998;2022-10-16T10:19:47;100908.09;;;18.46;100.00
3142;BME280;1581;51.568;6.998;2022-10-16T10:22:32;100917.63;;;18.25;100.00
3142;BME280;1581;51.568;6.998;2022-10-16T10:25:43;100914.47;;;18.40;100.00
3142;BME280;1581;51.568;6.998;2022-10-16T10:28:46;100922.56;;;18.40;100.00
3142;BME280;1581;51.568;6.998;2022-10-16T10:31:23;100913.50;;;18.69;100.00
3142;BME280;1581;51.568;6.998;2022-10-16T10:33:58;100909.88;;;19.02;100.00
3142;BME280;1581;51.568;6.998;2022-10-16T10:36:34;100918.81;;;19.14;100.00
3142;BME280;1581;51.568;6.998;2022-10-16T10:39:07;100921.00;;;19.29;100.00
3142;BME280;1581;51.568;6.998;2022-10-16T10:42:07;100918.25;;;19.40;100.00
3142;BME280;1581;51.568;6.998;2022-10-16T10:45:11;100914.66;;;19.35;100.00
3142;BME280;1581;51.568;6.998;2022-10-16T10:47:53;100914.00;;;19.44;100.00
3142;BME280;1581;51.568;6.998;2022-10-16T10:50:36;100916.31;;;19.52;100.00
3142;BME280;1581;51.568;6.998;2022-10-16T10:53:25;100923.63;;;19.52;100.00
3142;BME280;1581;51.568;6.998;2022-10-16T10:56:05;100924.56;;;19.06;100.00
3142;BME280;1581;51.568;6.998;2022-10-16T10:59:00;100920.19;;;19.17;100.00
3142;BME280;1581;51.568;6.998;2022-10-16T11:01:40;100918.25;;;19.40;100.00
3142;BME280;1581;51.568;6.998;2022-10-16T11:04:49;100915.00;;;19.83;100.00
3142;BME280;1581;51.568;6.998;2022-10-16T11:07:27;100923.47;;;20.35;100.00
3142;BME280;1581;51.568;6.998;2022-10-16T11:10:02;100925.91;;;20.53;100.00
3142;BME280;1581;51.568;6.998;2022-10-16T11:12:34;100927.47;;;20.49;100.00
3142;BME280;1581;51.568;6.998;2022-10-16T11:15:11;100931.66;;;20.40;100.00
3142;BME280;1581;51.568;6.998;2022-10-16T11:17:44;100922.09;;;20.00;100.00
3142;BME280;1581;51.568;6.998;2022-10-16T11:20:18;100917.72;;;20.32;100.00
3142;BME280;1581;51.568;6.998;2022-10-16T11:22:53;100931.34;;;20.20;100.00
3142;BME280;1581;51.568;6.998;2022-10-16T11:25:24;100925.44;;;20.07;100.00
3142;BME280;1581;51.568;6.998;2022-10-16T11:28:00;100933.47;;;20.02;100.00
3142;BME280;1581;51.568;6.998;2022-10-16T11:30:30;100923.31;;;20.09;100.00
3142;BME280;1581;51.568;6.998;2022-10-16T11:33:19;100933.59;;;19.79;100.00
3142;BME280;1581;51.568;6.998;2022-10-16T11:35:56;100937.84;;;19.75;100.00
3142;BME280;1581;51.568;6.998;2022-10-16T11:38:34;100936.44;;;19.73;100.00
3142;BME280;1581;51.568;6.998;2022-10-16T11:41:10;100937.88;;;19.91;100.00
3142;BME280;1581;51.568;6.998;2022-10-16T11:43:48;100930.69;;;19.97;100.00
3142;BME280;1581;51.568;6.998;2022-10-16T11:46:21;100947.91;;;20.07;100.00
3142;BME280;1581;51.568;6.998;2022-10-16T11:48:56;100936.75;;;20.20;100.00
3142;BME280;1581;51.568;6.998;2022-10-16T11:51:31;100935.94;;;20.20;100.00
3142;BME280;1581;51.568;6.998;2022-10-16T11:54:08;100939.38;;;19.99;100.00
3142;BME280;1581;51.568;6.998;2022-10-16T11:56:45;100943.06;;;20.26;100.00
3142;BME280;1581;51.568;6.998;2022-10-16T11:59:22;100943.06;;;20.09;100.00
3142;BME280;1581;51.568;6.998;2022-10-16T12:01:59;100947.25;;;19.73;100.00
3142;BME280;1581;51.568;6.998;2022-10-16T12:04:42;100952.59;;;19.84;100.00
3142;BME280;1581;51.568;6.998;2022-10-16T12:07:16;100958.00;;;19.84;100.00
3142;BME280;1581;51.568;6.998;2022-10-16T12:09:48;100963.00;;;19.92;100.00
3142;BME280;1581;51.568;6.998;2022-10-16T12:12:28;100962.28;;;20.24;100.00
3142;BME280;1581;51.568;6.998;2022-10-16T12:15:22;100959.31;;;20.42;100.00
3142;BME280;1581;51.568;6.998;2022-10-16T12:17:51;100967.69;;;20.08;100.00
3142;BME280;1581;51.568;6.998;2022-10-16T12:20:26;100968.88;;;20.00;100.00
3142;BME280;1581;51.568;6.998;2022-10-16T12:22:58;100968.44;;;19.64;100.00
3142;BME280;1581;51.568;6.998;2022-10-16T12:25:31;100960.81;;;19.89;100.00
3142;BME280;1581;51.568;6.998;2022-10-16T12:28:04;100953.63;;;20.27;100.00
3142;BME280;1581;51.568;6.998;2022-10-16T12:30:35;100960.78;;;20.33;100.00
3142;BME280;1581;51.568;6.998;2022-10-16T12:33:05;100950.38;;;20.25;100.00
3142;BME280;1581;51.568;6.998;2022-10-16T12:35:42;100954.06;;;20.36;100.00
3142;BME280;1581;51.568;6.998;2022-10-16T12:38:19;100953.00;;;20.37;100.00
3142;BME280;1581;51.568;6.998;2022-10-16T12:40:59;100957.09;;;20.23;100.00
3142;BME280;1581;51.568;6.998;2022-10-16T12:43:39;100965.66;;;19.87;100.00
3142;BME280;1581;51.568;6.998;2022-10-16T12:46:38;100973.28;;;19.62;100.00
3142;BME280;1581;51.568;6.998;2022-10-16T12:49:29;100968.97;;;19.78;100.00
3142;BME280;1581;51.568;6.998;2022-10-16T12:51:57;100975.56;;;19.54;100.00
3142;BME280;1581;51.568;6.998;2022-10-16T12:54:29;100964.25;;;19.57;100.00
3142;BME280;1581;51.568;6.998;2022-10-16T12:57:13;100961.41;;;19.63;100.00
3142;BME280;1581;51.568;6.998;2022-10-16T12:59:58;100962.38;;;19.57;100.00
3142;BME280;1581;51.568;6.998;2022-10-16T13:06:11;100973.66;;;19.82;100.00
3142;BME280;1581;51.568;6.998;2022-10-16T13:09:05;100965.94;;;20.02;100.00
3142;BME280;1581;51.568;6.998;2022-10-16T13:11:52;100975.31;;;20.11;100.00
3142;BME280;1581;51.568;6.998;2022-10-16T13:15:01;100967.66;;;20.57;100.00
3142;BME280;1581;51.568;6.998;2022-10-16T13:17:42;100970.84;;;20.87;100.00
3142;BME280;1581;51.568;6.998;2022-10-16T13:20:20;100979.03;;;20.76;96.88
3142;BME280;1581;51.568;6.998;2022-10-16T13:22:58;100985.53;;;20.91;96.69
3142;BME280;1581;51.568;6.998;2022-10-16T13:25:41;100971.47;;;21.10;92.52
3142;BME280;1581;51.568;6.998;2022-10-16T13:28:13;100983.91;;;21.11;91.58
3142;BME280;1581;51.568;6.998;2022-10-16T13:30:50;100990.75;;;21.14;92.88
3142;BME280;1581;51.568;6.998;2022-10-16T13:33:25;100985.56;;;21.34;93.35